Terminal Aerodrome Forecast
Issued by NWS

Home | Current Version | Previous Version | Text Only | Print | Product List | Glossary On
Versions: 1 2 3 4 5 6 7 8 9 10 11 12 13 14 15 16 17 18 19 20 21
701
FTUS43 KPAH 172337
TAFCGI
TAF
KCGI 172337Z 1800/1824 29006KT P6SM OVC025
     FM180900 VRB03KT P6SM BKN015
     FM181600 16004KT P6SM SCT060 BKN200=

USA.gov is the U.S. government's official web portal to all federal, state and local government web resources and services.